Time;durP1;ratioP1;P1;durP2;ratioP2;P2;SDS_P1;SDS_P2;PMS_P1;PMS_P2;Temp;Humidity;BMP_temperature;BMP_pressure;BME280_temperature;BME280_humidity;BME280_pressure;Samples;Min_cycle;Max_cycle;Signal;HPM_P1;HPM_P2
2024/01/21 00:01:19;;;;;;;6.28;3.85;;;;;;;;;;4996142;28;20466;-66
2024/01/21 00:03:44;;;;;;;5.25;3.20;;;;;;;;;;4997075;28;20113;-67
2024/01/21 00:06:10;;;;;;;3.45;2.92;;;;;;;;;;4996161;28;20555;-67
2024/01/21 00:08:35;;;;;;;6.28;3.97;;;;;;;;;;4979536;28;20034;-67
2024/01/21 00:11:01;;;;;;;3.90;3.47;;;;;;;;;;4996366;28;20441;-67
2024/01/21 00:13:26;;;;;;;3.53;3.22;;;;;;;;;;4996708;28;20037;-68
2024/01/21 00:15:52;;;;;;;11.27;4.30;;;;;;;;;;4996657;28;21055;-66
2024/01/21 00:18:17;;;;;;;5.07;3.55;;;;;;;;;;4996371;28;20045;-68
2024/01/21 00:20:43;;;;;;;3.00;2.80;;;;;;;;;;4996760;28;20119;-67
2024/01/21 00:23:08;;;;;;;3.60;3.28;;;;;;;;;;4996644;28;20550;-67
2024/01/21 00:25:34;;;;;;;5.07;4.32;;;;;;;;;;4997573;28;20060;-67
2024/01/21 00:27:59;;;;;;;3.35;3.00;;;;;;;;;;4980724;28;20054;-67
2024/01/21 00:30:25;;;;;;;5.78;2.80;;;;;;;;;;4995960;28;20053;-67
2024/01/21 00:32:50;;;;;;;1.55;1.42;;;;;;;;;;4996205;28;20046;-68
2024/01/21 00:35:16;;;;;;;7.88;3.15;;;;;;;;;;4996601;28;20047;-67
2024/01/21 00:37:41;;;;;;;4.88;4.47;;;;;;;;;;4996638;28;20065;-68
2024/01/21 00:40:08;;;;;;;5.40;3.80;;;;;;;;;;4996372;28;20068;-68
2024/01/21 00:42:34;;;;;;;2.88;2.67;;;;;;;;;;4995739;28;20050;-69
2024/01/21 00:45:00;;;;;;;10.38;3.20;;;;;;;;;;4997087;28;20049;-67
2024/01/21 00:47:25;;;;;;;4.10;3.20;;;;;;;;;;4978207;28;20080;-68
2024/01/21 00:49:51;;;;;;;3.80;2.92;;;;;;;;;;4978459;28;20507;-67
2024/01/21 00:52:16;;;;;;;4.07;3.65;;;;;;;;;;4995971;28;20045;-67
2024/01/21 00:54:42;;;;;;;5.13;3.35;;;;;;;;;;4980449;28;20728;-67
2024/01/21 00:57:07;;;;;;;3.10;2.80;;;;;;;;;;4995972;28;20053;-67
2024/01/21 00:59:32;;;;;;;5.43;2.55;;;;;;;;;;4995896;28;20046;-67
2024/01/21 01:01:58;;;;;;;2.50;2.35;;;;;;;;;;4995773;28;20053;-66
2024/01/21 01:04:23;;;;;;;3.05;2.75;;;;;;;;;;4995181;28;20554;-67
2024/01/21 01:06:49;;;;;;;3.22;2.92;;;;;;;;;;4996399;28;20057;-67
2024/01/21 01:09:15;;;;;;;6.45;4.97;;;;;;;;;;4995502;28;20049;-69
2024/01/21 01:11:40;;;;;;;7.45;3.15;;;;;;;;;;4995995;28;21127;-67
2024/01/21 01:14:05;;;;;;;2.38;2.17;;;;;;;;;;4995895;28;20061;-67
2024/01/21 01:16:41;;;;;;;2.70;2.50;;;;;;;;;;4994204;28;20053;-67
2024/01/21 01:19:07;;;;;;;2.40;2.20;;;;;;;;;;4996197;28;20046;-67
2024/01/21 01:21:33;;;;;;;4.32;2.47;;;;;;;;;;4995656;28;20049;-67
2024/01/21 01:23:59;;;;;;;3.72;2.50;;;;;;;;;;4994455;28;20092;-67
2024/01/21 01:26:24;;;;;;;4.90;2.45;;;;;;;;;;4993813;28;21952;-67
2024/01/21 01:28:50;;;;;;;7.68;3.47;;;;;;;;;;4994568;28;20376;-68
2024/01/21 01:31:17;;;;;;;8.10;4.07;;;;;;;;;;4993548;28;20076;-68
2024/01/21 01:33:42;;;;;;;7.50;3.45;;;;;;;;;;4960706;28;20066;-68
2024/01/21 01:36:08;;;;;;;4.97;3.33;;;;;;;;;;4993918;28;20199;-68
2024/01/21 01:38:34;;;;;;;8.85;4.13;;;;;;;;;;4995463;28;20196;-66
2024/01/21 01:40:59;;;;;;;4.72;3.15;;;;;;;;;;4996127;28;20050;-67
2024/01/21 01:43:25;;;;;;;7.45;3.05;;;;;;;;;;4995243;28;20052;-67
2024/01/21 01:45:51;;;;;;;10.40;4.45;;;;;;;;;;4994379;28;20148;-67
2024/01/21 01:48:17;;;;;;;4.22;3.55;;;;;;;;;;4994827;28;20038;-66
2024/01/21 01:50:43;;;;;;;4.13;3.22;;;;;;;;;;4996262;28;20052;-67
2024/01/21 01:53:08;;;;;;;3.17;2.92;;;;;;;;;;4999060;28;20054;-66
2024/01/21 01:55:34;;;;;;;8.68;4.65;;;;;;;;;;4999596;28;20050;-67
2024/01/21 01:58:00;;;;;;;4.43;4.03;;;;;;;;;;4998200;28;20156;-68
2024/01/21 02:00:26;;;;;;;6.10;4.50;;;;;;;;;;4983699;28;20041;-67
2024/01/21 02:02:52;;;;;;;3.35;2.92;;;;;;;;;;4999595;28;20434;-66
2024/01/21 02:05:17;;;;;;;3.63;3.33;;;;;;;;;;4983812;28;20208;-66
2024/01/21 02:07:43;;;;;;;3.15;2.33;;;;;;;;;;4998945;28;20554;-67
2024/01/21 02:10:08;;;;;;;5.13;4.07;;;;;;;;;;4983089;28;20526;-67
2024/01/21 02:12:34;;;;;;;2.97;2.78;;;;;;;;;;4998778;28;20041;-68
2024/01/21 02:14:59;;;;;;;6.63;5.15;;;;;;;;;;4999935;28;20065;-67
2024/01/21 02:17:25;;;;;;;4.68;3.38;;;;;;;;;;4998285;28;20050;-68
2024/01/21 02:19:50;;;;;;;3.40;3.05;;;;;;;;;;4997992;28;20626;-67
2024/01/21 02:22:16;;;;;;;4.25;3.15;;;;;;;;;;4998236;28;20876;-67
2024/01/21 02:24:41;;;;;;;3.65;3.35;;;;;;;;;;4999555;28;20049;-67
2024/01/21 02:27:07;;;;;;;3.55;3.20;;;;;;;;;;4999160;28;20132;-66
2024/01/21 02:29:32;;;;;;;7.22;3.08;;;;;;;;;;4998749;28;20100;-65
2024/01/21 02:31:58;;;;;;;2.60;2.42;;;;;;;;;;4997393;28;20688;-67
2024/01/21 02:34:24;;;;;;;6.28;3.95;;;;;;;;;;4998223;28;20104;-66
2024/01/21 02:36:49;;;;;;;6.18;4.10;;;;;;;;;;4998618;28;20140;-67
2024/01/21 02:39:15;;;;;;;2.85;2.63;;;;;;;;;;4998480;28;20053;-67
2024/01/21 02:41:40;;;;;;;2.38;2.17;;;;;;;;;;4997992;28;20517;-71
2024/01/21 02:44:06;;;;;;;2.65;2.08;;;;;;;;;;4982509;28;20067;-67
2024/01/21 02:46:31;;;;;;;2.30;2.17;;;;;;;;;;4998224;28;20056;-67
2024/01/21 02:48:56;;;;;;;3.15;2.60;;;;;;;;;;4999240;28;20046;-67
2024/01/21 02:51:22;;;;;;;4.57;2.42;;;;;;;;;;4998148;28;20050;-67
2024/01/21 02:53:48;;;;;;;3.03;2.78;;;;;;;;;;4997428;28;20153;-66
2024/01/21 02:56:29;;;;;;;2.58;2.38;;;;;;;;;;4999046;28;20046;-66
2024/01/21 02:58:54;;;;;;;3.65;2.03;;;;;;;;;;4998435;28;20038;-67
2024/01/21 03:01:20;;;;;;;3.92;3.45;;;;;;;;;;4997660;28;20276;-66
2024/01/21 03:03:46;;;;;;;4.15;2.72;;;;;;;;;;4997310;28;20037;-67
2024/01/21 03:06:12;;;;;;;5.22;3.13;;;;;;;;;;4997526;28;20153;-66
2024/01/21 03:08:37;;;;;;;1.98;1.85;;;;;;;;;;4997112;28;20034;-68
2024/01/21 03:11:03;;;;;;;2.67;2.47;;;;;;;;;;4998661;28;20516;-67
2024/01/21 03:13:28;;;;;;;2.05;1.95;;;;;;;;;;4997348;28;20057;-68
2024/01/21 03:15:56;;;;;;;6.63;3.15;;;;;;;;;;4979560;28;20052;-67
2024/01/21 03:18:21;;;;;;;4.32;3.05;;;;;;;;;;4997279;28;20038;-70
2024/01/21 03:20:47;;;;;;;3.53;2.33;;;;;;;;;;4980462;28;20042;-68
2024/01/21 03:23:13;;;;;;;2.58;2.35;;;;;;;;;;4997857;28;20057;-67
2024/01/21 03:25:38;;;;;;;5.05;2.97;;;;;;;;;;4979498;28;20056;-67
2024/01/21 03:28:04;;;;;;;3.17;2.80;;;;;;;;;;4997384;28;20153;-67
2024/01/21 03:30:29;;;;;;;2.35;2.15;;;;;;;;;;4996900;28;20930;-67
2024/01/21 03:32:55;;;;;;;4.40;2.63;;;;;;;;;;4998115;28;20080;-67
2024/01/21 03:35:20;;;;;;;4.13;3.50;;;;;;;;;;4997284;28;20057;-67
2024/01/21 03:37:45;;;;;;;3.70;2.83;;;;;;;;;;4996707;28;20046;-67
2024/01/21 03:40:11;;;;;;;5.13;3.28;;;;;;;;;;4981880;28;20053;-67
2024/01/21 03:42:36;;;;;;;2.88;2.63;;;;;;;;;;4996923;28;20038;-68
2024/01/21 03:45:02;;;;;;;3.35;2.53;;;;;;;;;;4981436;28;20410;-67
2024/01/21 03:47:27;;;;;;;4.72;3.60;;;;;;;;;;4996231;28;20087;-65
2024/01/21 03:49:53;;;;;;;3.38;3.08;;;;;;;;;;4996938;28;20107;-67
2024/01/21 03:52:19;;;;;;;3.22;2.97;;;;;;;;;;4997616;28;20049;-67
2024/01/21 03:54:45;;;;;;;4.78;4.00;;;;;;;;;;4996135;28;20053;-67
2024/01/21 03:57:10;;;;;;;3.45;3.10;;;;;;;;;;4995235;28;20046;-67
2024/01/21 03:59:35;;;;;;;3.17;2.90;;;;;;;;;;4995911;28;21064;-67
2024/01/21 04:02:01;;;;;;;3.55;2.30;;;;;;;;;;4997374;28;20062;-67
2024/01/21 04:04:26;;;;;;;3.25;2.80;;;;;;;;;;4996609;28;20073;-67
2024/01/21 04:06:52;;;;;;;3.85;3.55;;;;;;;;;;4997476;28;20050;-66
2024/01/21 04:09:22;;;;;;;6.28;3.35;;;;;;;;;;4996423;28;20073;-66
2024/01/21 04:11:48;;;;;;;4.57;3.42;;;;;;;;;;4996096;28;20057;-67
2024/01/21 04:14:14;;;;;;;4.43;3.88;;;;;;;;;;4996478;28;20054;-68
2024/01/21 04:16:39;;;;;;;3.72;3.35;;;;;;;;;;4995987;28;20077;-68
2024/01/21 04:19:05;;;;;;;3.95;2.88;;;;;;;;;;4980139;28;20057;-68
2024/01/21 04:21:32;;;;;;;4.35;3.05;;;;;;;;;;4995793;28;20049;-68
2024/01/21 04:23:58;;;;;;;3.40;2.60;;;;;;;;;;4996106;28;20045;-68
2024/01/21 04:26:23;;;;;;;4.63;3.42;;;;;;;;;;4996738;28;20123;-67
2024/01/21 04:28:49;;;;;;;3.67;2.53;;;;;;;;;;4996847;28;20038;-68
2024/01/21 04:31:14;;;;;;;3.15;2.95;;;;;;;;;;4995769;28;20042;-67
2024/01/21 04:33:40;;;;;;;2.92;2.63;;;;;;;;;;4994980;28;20053;-68
2024/01/21 04:36:06;;;;;;;1.67;1.52;;;;;;;;;;4996565;28;20048;-67
2024/01/21 04:38:31;;;;;;;2.10;1.70;;;;;;;;;;4995582;28;20061;-67
2024/01/21 04:40:56;;;;;;;3.03;2.65;;;;;;;;;;4991739;28;20056;-68
2024/01/21 04:43:22;;;;;;;2.22;2.03;;;;;;;;;;4977300;28;20321;-66
2024/01/21 04:45:47;;;;;;;1.55;1.45;;;;;;;;;;4994841;28;20042;-67
2024/01/21 04:48:12;;;;;;;20.45;2.28;;;;;;;;;;4996686;28;20558;-66
2024/01/21 04:50:38;;;;;;;5.82;2.22;;;;;;;;;;4995475;28;20046;-66
2024/01/21 04:53:03;;;;;;;2.33;1.88;;;;;;;;;;4996569;28;20391;-67
2024/01/21 04:55:29;;;;;;;1.63;1.52;;;;;;;;;;4995300;28;20073;-66
2024/01/21 04:57:54;;;;;;;1.60;1.50;;;;;;;;;;4995781;28;20412;-66
2024/01/21 05:00:19;;;;;;;1.77;1.67;;;;;;;;;;4995898;28;20499;-68
2024/01/21 05:02:45;;;;;;;2.63;2.10;;;;;;;;;;4997736;28;20045;-68
2024/01/21 05:05:10;;;;;;;2.67;1.75;;;;;;;;;;4995671;28;20124;-68
2024/01/21 05:07:36;;;;;;;3.58;2.22;;;;;;;;;;4995369;28;20055;-65
2024/01/21 05:10:02;;;;;;;2.40;1.90;;;;;;;;;;4995593;28;21072;-67
2024/01/21 05:12:28;;;;;;;1.80;1.70;;;;;;;;;;4995211;28;20049;-66
2024/01/21 05:14:55;;;;;;;1.75;1.63;;;;;;;;;;4996515;28;20049;-66
2024/01/21 05:17:21;;;;;;;3.38;2.67;;;;;;;;;;4977706;28;20044;-66
2024/01/21 05:19:46;;;;;;;2.20;2.10;;;;;;;;;;4977007;28;20037;-66
2024/01/21 05:22:12;;;;;;;3.28;2.45;;;;;;;;;;4965222;28;20333;-66
2024/01/21 05:24:37;;;;;;;1.85;1.75;;;;;;;;;;4977929;28;20053;-66
2024/01/21 05:27:03;;;;;;;2.58;1.85;;;;;;;;;;4996152;28;20060;-66
2024/01/21 05:29:28;;;;;;;1.73;1.50;;;;;;;;;;4999138;28;20054;-67
2024/01/21 05:31:53;;;;;;;3.80;2.88;;;;;;;;;;4982336;28;20045;-67
2024/01/21 05:34:19;;;;;;;2.58;2.25;;;;;;;;;;4982825;28;20677;-67
2024/01/21 05:36:44;;;;;;;5.80;2.53;;;;;;;;;;4965053;28;20084;-68
2024/01/21 05:39:10;;;;;;;3.05;2.10;;;;;;;;;;4982929;28;20049;-67
2024/01/21 05:41:36;;;;;;;4.70;2.95;;;;;;;;;;4999340;28;20042;-68
2024/01/21 05:44:01;;;;;;;3.63;2.20;;;;;;;;;;4999285;28;20041;-67
2024/01/21 05:46:26;;;;;;;2.65;2.08;;;;;;;;;;4983661;28;20560;-68
2024/01/21 05:48:52;;;;;;;4.07;2.40;;;;;;;;;;4998750;28;20042;-68
2024/01/21 05:51:17;;;;;;;2.08;1.92;;;;;;;;;;4999918;28;20050;-68
2024/01/21 05:53:43;;;;;;;3.00;2.63;;;;;;;;;;4998291;28;20078;-67
2024/01/21 05:56:08;;;;;;;2.75;2.35;;;;;;;;;;4999912;28;20049;-67
2024/01/21 05:58:35;;;;;;;2.92;2.10;;;;;;;;;;4983412;28;20042;-67
2024/01/21 06:01:01;;;;;;;2.25;2.05;;;;;;;;;;4999115;28;20045;-67
2024/01/21 06:03:26;;;;;;;3.25;2.22;;;;;;;;;;4983706;28;20046;-68
2024/01/21 06:05:51;;;;;;;2.72;2.15;;;;;;;;;;4996855;28;20058;-66
2024/01/21 06:08:17;;;;;;;8.30;2.42;;;;;;;;;;4999523;28;20045;-68
2024/01/21 06:10:42;;;;;;;2.83;2.13;;;;;;;;;;4997825;28;20368;-66
2024/01/21 06:13:07;;;;;;;3.22;2.75;;;;;;;;;;4999379;28;20042;-68
2024/01/21 06:15:33;;;;;;;2.42;2.22;;;;;;;;;;4997032;28;20523;-68
2024/01/21 06:17:58;;;;;;;3.50;2.80;;;;;;;;;;4998195;28;20069;-68
2024/01/21 06:20:24;;;;;;;3.67;2.45;;;;;;;;;;4999090;28;20076;-67
2024/01/21 06:22:49;;;;;;;3.63;3.00;;;;;;;;;;4998081;28;20053;-68
2024/01/21 06:25:18;;;;;;;3.17;2.28;;;;;;;;;;4999097;28;20084;-67
2024/01/21 06:27:44;;;;;;;2.72;1.98;;;;;;;;;;4997681;28;20053;-68
2024/01/21 06:30:13;;;;;;;4.78;2.90;;;;;;;;;;4999291;28;20053;-67
2024/01/21 06:32:38;;;;;;;4.15;3.15;;;;;;;;;;4980519;28;20809;-66
2024/01/21 06:35:04;;;;;;;2.78;2.17;;;;;;;;;;4999303;28;20680;-68
2024/01/21 06:37:30;;;;;;;2.92;2.38;;;;;;;;;;4996943;28;20107;-68
2024/01/21 06:39:56;;;;;;;2.45;2.25;;;;;;;;;;4997331;28;20050;-67
2024/01/21 06:42:21;;;;;;;2.10;1.88;;;;;;;;;;4996681;28;20049;-67
2024/01/21 06:44:46;;;;;;;2.10;2.00;;;;;;;;;;4996516;28;20052;-67
2024/01/21 06:47:12;;;;;;;2.72;2.25;;;;;;;;;;4997945;28;21531;-67
2024/01/21 06:49:37;;;;;;;2.28;2.13;;;;;;;;;;4980797;28;20376;-67
2024/01/21 06:52:04;;;;;;;3.30;2.67;;;;;;;;;;4995239;28;20074;-67
2024/01/21 06:54:29;;;;;;;3.83;2.30;;;;;;;;;;4997485;28;20058;-67
2024/01/21 06:56:55;;;;;;;3.08;2.50;;;;;;;;;;4997333;28;20049;-68
2024/01/21 06:59:20;;;;;;;4.05;2.67;;;;;;;;;;4996937;28;20038;-67
2024/01/21 07:01:46;;;;;;;2.25;2.05;;;;;;;;;;4981032;28;20614;-68
2024/01/21 07:04:12;;;;;;;1.77;1.67;;;;;;;;;;4996086;28;20515;-68
2024/01/21 07:06:39;;;;;;;3.65;2.58;;;;;;;;;;4995555;28;20049;-67
2024/01/21 07:09:05;;;;;;;3.30;2.45;;;;;;;;;;4980332;28;20033;-68
2024/01/21 07:11:35;;;;;;;3.53;2.78;;;;;;;;;;4996606;28;20038;-68
2024/01/21 07:14:02;;;;;;;1.80;1.70;;;;;;;;;;4997299;28;20066;-67
2024/01/21 07:16:27;;;;;;;3.97;2.40;;;;;;;;;;4996922;28;20045;-67
2024/01/21 07:18:53;;;;;;;2.33;2.10;;;;;;;;;;4997092;28;20426;-68
2024/01/21 07:21:18;;;;;;;2.90;2.33;;;;;;;;;;4997537;28;20045;-68
2024/01/21 07:23:45;;;;;;;3.05;2.55;;;;;;;;;;4997199;28;20065;-71
2024/01/21 07:26:10;;;;;;;3.15;2.47;;;;;;;;;;4997162;28;20155;-68
2024/01/21 07:28:35;;;;;;;4.30;2.30;;;;;;;;;;4995684;28;20483;-68
2024/01/21 07:31:01;;;;;;;2.42;2.22;;;;;;;;;;4997569;28;20130;-68
2024/01/21 07:33:26;;;;;;;2.80;2.30;;;;;;;;;;4997338;28;20545;-69
2024/01/21 07:35:52;;;;;;;2.83;2.53;;;;;;;;;;4996041;28;20054;-69
2024/01/21 07:38:17;;;;;;;2.97;2.10;;;;;;;;;;4996463;28;20052;-68
2024/01/21 07:40:43;;;;;;;3.03;2.53;;;;;;;;;;4996721;28;20050;-68
2024/01/21 07:43:10;;;;;;;3.08;2.80;;;;;;;;;;4978031;28;20076;-69
2024/01/21 07:45:36;;;;;;;3.42;3.13;;;;;;;;;;4980205;28;20050;-68
2024/01/21 07:48:01;;;;;;;1.80;1.70;;;;;;;;;;4971556;28;20056;-69
2024/01/21 07:50:27;;;;;;;5.60;2.47;;;;;;;;;;4990984;28;20061;-68
2024/01/21 07:52:52;;;;;;;3.42;3.10;;;;;;;;;;4991167;28;20056;-69
2024/01/21 07:55:17;;;;;;;2.70;2.30;;;;;;;;;;4992874;28;20049;-69
2024/01/21 07:57:43;;;;;;;3.67;2.70;;;;;;;;;;4992288;28;20045;-69
2024/01/21 08:00:09;;;;;;;4.47;2.92;;;;;;;;;;4992975;28;20073;-68
2024/01/21 08:02:34;;;;;;;6.00;3.33;;;;;;;;;;4975318;28;20646;-68
2024/01/21 08:05:00;;;;;;;4.25;3.13;;;;;;;;;;4994483;28;20128;-69
2024/01/21 08:07:27;;;;;;;2.78;2.40;;;;;;;;;;4976966;28;20439;-69
2024/01/21 08:09:52;;;;;;;5.45;2.80;;;;;;;;;;4993270;28;20049;-69
2024/01/21 08:12:18;;;;;;;4.40;2.63;;;;;;;;;;4978081;28;20084;-68
2024/01/21 08:14:43;;;;;;;5.50;3.33;;;;;;;;;;4990537;28;21053;-69
2024/01/21 08:17:09;;;;;;;4.47;3.15;;;;;;;;;;4993565;28;20045;-68
2024/01/21 08:19:37;;;;;;;4.85;3.30;;;;;;;;;;4994501;28;20050;-69
2024/01/21 08:22:03;;;;;;;4.85;3.63;;;;;;;;;;4995266;28;20144;-69
2024/01/21 08:24:28;;;;;;;8.00;4.00;;;;;;;;;;4994002;28;20042;-68
2024/01/21 08:26:54;;;;;;;6.03;3.40;;;;;;;;;;4992548;28;20127;-68
2024/01/21 08:29:19;;;;;;;3.83;3.10;;;;;;;;;;4995356;28;20046;-70
2024/01/21 08:31:45;;;;;;;6.18;3.40;;;;;;;;;;4994068;28;20049;-70
2024/01/21 08:34:11;;;;;;;3.55;2.83;;;;;;;;;;4993224;28;20056;-68
2024/01/21 08:36:37;;;;;;;4.93;2.90;;;;;;;;;;4993691;28;20132;-68
2024/01/21 08:39:05;;;;;;;4.03;2.80;;;;;;;;;;4992804;28;20484;-68
2024/01/21 08:41:34;;;;;;;4.55;2.70;;;;;;;;;;4994060;28;20038;-68
2024/01/21 08:44:00;;;;;;;3.47;2.75;;;;;;;;;;4992592;28;20514;-67
2024/01/21 08:46:25;;;;;;;2.88;2.10;;;;;;;;;;4992220;28;20052;-69
2024/01/21 08:48:52;;;;;;;3.55;2.35;;;;;;;;;;4992500;28;20045;-69
2024/01/21 08:51:18;;;;;;;2.65;2.05;;;;;;;;;;4993886;28;20379;-70
2024/01/21 08:53:43;;;;;;;3.95;2.30;;;;;;;;;;4991868;28;20053;-67
2024/01/21 08:56:09;;;;;;;2.20;2.00;;;;;;;;;;4992491;28;20499;-67
2024/01/21 08:58:34;;;;;;;2.00;1.80;;;;;;;;;;4993435;28;20056;-68
2024/01/21 09:01:00;;;;;;;2.78;2.38;;;;;;;;;;4992186;28;20396;-68
2024/01/21 09:03:25;;;;;;;3.88;2.47;;;;;;;;;;4993171;28;20050;-69
2024/01/21 09:05:51;;;;;;;2.65;2.40;;;;;;;;;;4991837;28;20065;-68
2024/01/21 09:08:16;;;;;;;2.10;1.90;;;;;;;;;;4994056;28;20046;-70
2024/01/21 09:10:43;;;;;;;2.65;2.10;;;;;;;;;;4992118;28;20046;-69
2024/01/21 09:13:09;;;;;;;2.80;2.00;;;;;;;;;;4994955;28;20528;-67
2024/01/21 09:15:34;;;;;;;2.80;2.30;;;;;;;;;;4993920;28;20038;-68
2024/01/21 09:18:00;;;;;;;4.03;2.33;;;;;;;;;;4992093;28;20068;-70
2024/01/21 09:20:25;;;;;;;2.30;2.10;;;;;;;;;;4990655;28;20802;-67
2024/01/21 09:22:51;;;;;;;2.67;2.05;;;;;;;;;;4987695;28;20133;-69
2024/01/21 09:25:16;;;;;;;2.35;1.98;;;;;;;;;;4973485;28;20049;-67
2024/01/21 09:27:41;;;;;;;2.40;1.95;;;;;;;;;;4992219;28;20161;-68
2024/01/21 09:30:07;;;;;;;5.03;3.00;;;;;;;;;;4990248;28;20041;-68
2024/01/21 09:32:33;;;;;;;2.83;2.33;;;;;;;;;;4990731;28;20104;-68
2024/01/21 09:34:58;;;;;;;3.10;2.42;;;;;;;;;;4991307;28;20060;-67
2024/01/21 09:37:23;;;;;;;2.88;2.35;;;;;;;;;;4992257;28;20470;-68
2024/01/21 09:39:49;;;;;;;4.03;2.75;;;;;;;;;;4991470;28;20042;-69
2024/01/21 09:42:17;;;;;;;4.13;2.90;;;;;;;;;;4992827;28;20057;-69
2024/01/21 09:44:43;;;;;;;3.83;2.63;;;;;;;;;;4990925;28;20054;-70
2024/01/21 09:47:10;;;;;;;4.35;2.85;;;;;;;;;;4988772;28;20084;-69
2024/01/21 09:49:37;;;;;;;4.00;3.10;;;;;;;;;;4992027;28;20042;-68
2024/01/21 09:52:04;;;;;;;3.72;2.70;;;;;;;;;;4989215;28;20500;-70
2024/01/21 09:54:29;;;;;;;4.00;3.00;;;;;;;;;;4991085;28;20053;-69
2024/01/21 09:56:55;;;;;;;4.72;3.13;;;;;;;;;;4990693;28;20054;-68
2024/01/21 09:59:21;;;;;;;5.18;2.65;;;;;;;;;;4991405;28;20523;-67
2024/01/21 10:01:47;;;;;;;4.93;2.97;;;;;;;;;;4990271;28;20474;-69
2024/01/21 10:04:16;;;;;;;8.18;3.67;;;;;;;;;;4992976;28;20046;-67
2024/01/21 10:06:42;;;;;;;6.45;4.10;;;;;;;;;;4974329;28;20054;-68
2024/01/21 10:09:11;;;;;;;9.63;4.45;;;;;;;;;;4991176;28;20404;-68
2024/01/21 10:11:37;;;;;;;6.72;4.25;;;;;;;;;;4993251;28;20042;-68
2024/01/21 10:14:02;;;;;;;6.90;4.43;;;;;;;;;;4978430;28;20046;-67
2024/01/21 10:16:28;;;;;;;5.25;4.20;;;;;;;;;;4996960;28;20053;-69
2024/01/21 10:18:53;;;;;;;7.00;3.95;;;;;;;;;;4996746;28;20100;-67
2024/01/21 10:21:19;;;;;;;6.35;4.65;;;;;;;;;;4981702;28;20100;-69
2024/01/21 10:23:46;;;;;;;8.95;3.65;;;;;;;;;;4997209;28;20050;-68
2024/01/21 10:26:12;;;;;;;7.38;4.05;;;;;;;;;;4996198;28;20062;-69
2024/01/21 10:28:39;;;;;;;5.68;3.58;;;;;;;;;;4979488;28;20117;-69
2024/01/21 10:31:06;;;;;;;6.50;3.45;;;;;;;;;;4995811;28;20132;-68
2024/01/21 10:33:32;;;;;;;4.70;3.28;;;;;;;;;;4997808;28;20037;-69
2024/01/21 10:36:00;;;;;;;9.40;3.47;;;;;;;;;;4996162;28;20046;-69
2024/01/21 10:38:29;;;;;;;6.15;3.05;;;;;;;;;;4997298;28;20046;-69
2024/01/21 10:40:55;;;;;;;5.88;3.38;;;;;;;;;;4995521;28;20053;-68
2024/01/21 10:43:20;;;;;;;15.02;3.97;;;;;;;;;;4996780;28;20384;-69
2024/01/21 10:45:46;;;;;;;5.80;3.10;;;;;;;;;;4979453;28;20046;-69
2024/01/21 10:48:15;;;;;;;4.53;2.97;;;;;;;;;;4997478;28;21077;-68
2024/01/21 10:50:42;;;;;;;5.80;3.25;;;;;;;;;;4997718;28;20965;-69
2024/01/21 10:53:12;;;;;;;6.43;3.33;;;;;;;;;;4981609;28;20053;-68
2024/01/21 10:55:40;;;;;;;6.15;2.75;;;;;;;;;;4997451;28;20049;-69
2024/01/21 10:58:07;;;;;;;4.20;2.65;;;;;;;;;;4994220;28;20328;-69
2024/01/21 11:00:33;;;;;;;4.68;2.65;;;;;;;;;;4987105;28;20057;-69
2024/01/21 11:03:25;;;;;;;6.35;2.38;;;;;;;;;;4996692;28;20408;-68
2024/01/21 11:05:53;;;;;;;3.08;2.00;;;;;;;;;;4995511;28;20104;-69
2024/01/21 11:08:22;;;;;;;3.25;2.15;;;;;;;;;;4996715;28;20623;-69
2024/01/21 11:10:51;;;;;;;3.38;1.90;;;;;;;;;;4998126;28;20059;-68
2024/01/21 11:13:38;;;;;;;3.05;2.03;;;;;;;;;;4998264;28;20113;-67
2024/01/21 11:16:06;;;;;;;2.97;2.13;;;;;;;;;;4996671;28;20478;-69
2024/01/21 11:18:31;;;;;;;5.82;1.92;;;;;;;;;;4996863;28;20053;-68
2024/01/21 11:21:01;;;;;;;3.60;2.30;;;;;;;;;;4997570;28;20049;-68
2024/01/21 11:23:27;;;;;;;3.85;2.45;;;;;;;;;;4998177;28;20593;-68
2024/01/21 11:25:53;;;;;;;3.72;2.03;;;;;;;;;;4990246;28;20042;-70
2024/01/21 11:28:29;;;;;;;3.55;2.20;;;;;;;;;;4992800;28;20554;-68
2024/01/21 11:31:02;;;;;;;3.03;2.70;;;;;;;;;;4992250;28;20981;-69
2024/01/21 11:33:29;;;;;;;5.30;2.22;;;;;;;;;;4995255;28;20049;-68
2024/01/21 11:35:58;;;;;;;3.60;2.45;;;;;;;;;;4991838;28;20053;-69
2024/01/21 11:38:23;;;;;;;5.82;3.00;;;;;;;;;;4993381;28;21545;-68
2024/01/21 11:41:07;;;;;;;3.38;2.20;;;;;;;;;;4993684;28;20057;-68
2024/01/21 11:43:32;;;;;;;3.88;2.50;;;;;;;;;;4978063;28;20133;-68
2024/01/21 11:45:59;;;;;;;6.72;2.25;;;;;;;;;;4993906;28;20103;-68
2024/01/21 11:48:29;;;;;;;3.25;2.40;;;;;;;;;;4978822;28;20068;-68
2024/01/21 11:50:55;;;;;;;2.33;2.03;;;;;;;;;;4995367;28;20109;-68
2024/01/21 11:53:20;;;;;;;5.63;2.47;;;;;;;;;;4996176;28;20514;-68
2024/01/21 11:55:46;;;;;;;5.47;2.72;;;;;;;;;;4996558;28;20136;-69
2024/01/21 11:58:12;;;;;;;4.15;2.22;;;;;;;;;;4979463;28;20104;-69
2024/01/21 12:00:38;;;;;;;2.65;2.20;;;;;;;;;;4996314;28;20042;-67
2024/01/21 12:03:03;;;;;;;2.08;1.85;;;;;;;;;;4994093;28;20135;-69
2024/01/21 12:05:29;;;;;;;3.80;2.10;;;;;;;;;;4994994;28;20041;-67
2024/01/21 12:07:55;;;;;;;4.28;2.40;;;;;;;;;;4991332;28;21850;-69
2024/01/21 12:10:21;;;;;;;3.42;2.28;;;;;;;;;;4993131;28;20144;-67
2024/01/21 12:12:46;;;;;;;12.10;2.75;;;;;;;;;;4993849;28;20046;-69
2024/01/21 12:15:12;;;;;;;5.20;2.50;;;;;;;;;;4974580;28;20053;-70
2024/01/21 12:17:37;;;;;;;4.75;2.40;;;;;;;;;;4995321;28;20053;-68
2024/01/21 12:20:04;;;;;;;2.58;2.05;;;;;;;;;;4991954;28;20046;-69
2024/01/21 12:22:37;;;;;;;4.78;2.10;;;;;;;;;;4995406;28;20136;-68
2024/01/21 12:25:03;;;;;;;7.63;2.50;;;;;;;;;;4993234;28;20107;-70
2024/01/21 12:27:29;;;;;;;4.38;2.45;;;;;;;;;;4994500;28;20053;-68
2024/01/21 12:29:55;;;;;;;2.58;2.33;;;;;;;;;;4975238;28;20197;-68
2024/01/21 12:32:21;;;;;;;7.18;2.53;;;;;;;;;;4994869;28;20885;-68
2024/01/21 12:34:47;;;;;;;4.60;2.80;;;;;;;;;;4994675;28;20111;-69
2024/01/21 12:37:12;;;;;;;7.03;2.67;;;;;;;;;;4993154;28;20050;-67
2024/01/21 12:39:39;;;;;;;4.60;2.80;;;;;;;;;;4977153;28;20041;-69
2024/01/21 12:42:05;;;;;;;5.55;2.45;;;;;;;;;;4993353;28;20077;-70
2024/01/21 12:44:30;;;;;;;6.22;2.90;;;;;;;;;;4996349;28;20076;-66
2024/01/21 12:46:56;;;;;;;7.15;2.88;;;;;;;;;;4995677;28;20061;-67
2024/01/21 12:49:22;;;;;;;6.07;2.92;;;;;;;;;;4996993;28;20073;-67
2024/01/21 12:51:47;;;;;;;10.15;2.70;;;;;;;;;;4996132;28;20129;-69
2024/01/21 12:54:13;;;;;;;6.22;2.08;;;;;;;;;;4996396;28;20426;-68
2024/01/21 12:56:39;;;;;;;4.72;2.50;;;;;;;;;;4979042;28;20038;-68
2024/01/21 12:59:04;;;;;;;4.25;2.63;;;;;;;;;;4995619;28;20064;-69
2024/01/21 13:01:30;;;;;;;6.38;2.70;;;;;;;;;;4995959;28;20046;-66
2024/01/21 13:03:56;;;;;;;3.67;2.17;;;;;;;;;;4995959;28;20041;-69
2024/01/21 13:06:21;;;;;;;5.30;2.90;;;;;;;;;;4996263;28;20041;-69
2024/01/21 13:08:47;;;;;;;5.38;2.58;;;;;;;;;;4995929;28;20037;-67
2024/01/21 13:11:13;;;;;;;6.82;2.33;;;;;;;;;;4995905;28;20141;-66
2024/01/21 13:13:39;;;;;;;3.08;2.33;;;;;;;;;;4996958;28;20056;-68
2024/01/21 13:16:05;;;;;;;4.25;2.33;;;;;;;;;;4994642;28;20054;-67
2024/01/21 13:18:31;;;;;;;3.38;2.25;;;;;;;;;;4994960;28;20061;-71
2024/01/21 13:20:57;;;;;;;4.07;2.35;;;;;;;;;;4995209;28;20053;-70
2024/01/21 13:23:22;;;;;;;4.95;2.80;;;;;;;;;;4996489;28;20045;-67
2024/01/21 13:25:48;;;;;;;6.25;2.50;;;;;;;;;;4995936;28;20037;-67
2024/01/21 13:28:14;;;;;;;9.52;2.72;;;;;;;;;;4994813;28;20104;-68
2024/01/21 13:30:46;;;;;;;6.15;3.08;;;;;;;;;;4994842;28;20061;-69
2024/01/21 13:33:16;;;;;;;;;;;;;;;;;;4973808;28;20367;-69
2024/01/21 13:35:42;;;;;;;3.65;2.47;;;;;;;;;;4993332;28;20019;-67
2024/01/21 13:38:10;;;;;;;3.97;2.60;;;;;;;;;;4973435;28;20062;-68
2024/01/21 13:40:36;;;;;;;3.47;2.80;;;;;;;;;;4993186;28;20065;-68
2024/01/21 13:43:01;;;;;;;3.58;2.67;;;;;;;;;;4989388;28;20054;-69
2024/01/21 13:45:26;;;;;;;5.05;2.50;;;;;;;;;;4991317;28;20348;-68
2024/01/21 13:47:52;;;;;;;2.88;2.17;;;;;;;;;;4982685;28;20056;-70
2024/01/21 13:50:17;;;;;;;4.05;2.80;;;;;;;;;;4976221;28;20049;-69
2024/01/21 13:52:43;;;;;;;4.43;2.58;;;;;;;;;;4996547;28;20100;-69
2024/01/21 13:55:08;;;;;;;3.42;2.67;;;;;;;;;;4979538;28;20045;-70
2024/01/21 13:57:35;;;;;;;2.97;2.25;;;;;;;;;;4997367;28;20058;-68
2024/01/21 14:00:00;;;;;;;8.25;2.72;;;;;;;;;;4994856;28;20099;-68
2024/01/21 14:02:26;;;;;;;5.75;2.92;;;;;;;;;;4995392;28;20100;-68
2024/01/21 14:04:52;;;;;;;3.88;2.90;;;;;;;;;;4996546;28;20056;-68
2024/01/21 14:07:17;;;;;;;17.20;3.25;;;;;;;;;;4980829;28;20050;-70
2024/01/21 14:09:43;;;;;;;11.13;3.08;;;;;;;;;;4995778;28;20057;-69
2024/01/21 14:12:09;;;;;;;7.88;3.20;;;;;;;;;;4996795;28;20056;-69
2024/01/21 14:14:35;;;;;;;10.27;4.00;;;;;;;;;;4997140;28;20045;-69
2024/01/21 14:17:01;;;;;;;4.30;2.85;;;;;;;;;;4993303;28;20052;-69
2024/01/21 14:19:26;;;;;;;8.90;3.45;;;;;;;;;;4995824;28;20037;-67
2024/01/21 14:21:52;;;;;;;5.32;2.80;;;;;;;;;;4996076;28;20046;-69
2024/01/21 14:24:17;;;;;;;3.47;2.65;;;;;;;;;;4996629;28;21575;-68
2024/01/21 14:26:44;;;;;;;5.18;2.55;;;;;;;;;;4994833;28;20053;-68
2024/01/21 14:29:17;;;;;;;7.20;2.85;;;;;;;;;;4995810;28;20046;-66
2024/01/21 14:31:43;;;;;;;5.32;2.45;;;;;;;;;;4994173;28;20068;-66
2024/01/21 14:34:11;;;;;;;4.65;2.78;;;;;;;;;;4993260;28;20053;-68
2024/01/21 14:36:40;;;;;;;4.30;2.60;;;;;;;;;;4996113;28;20049;-68